sensor_id;sensor_type;location;lat;lon;timestamp;P1;durP1;ratioP1;P2;durP2;ratioP2
32292;SDS011;43233;48.608;8.838;2022-07-09T00:01:36;8.47;;;4.00;;
32292;SDS011;43233;48.608;8.838;2022-07-09T00:04:01;5.13;;;3.50;;
32292;SDS011;43233;48.608;8.838;2022-07-09T00:06:27;3.23;;;2.37;;
32292;SDS011;43233;48.608;8.838;2022-07-09T00:08:53;5.10;;;2.67;;
32292;SDS011;43233;48.608;8.838;2022-07-09T00:11:19;3.10;;;2.70;;
32292;SDS011;43233;48.608;8.838;2022-07-09T00:13:44;6.63;;;2.53;;
32292;SDS011;43233;48.608;8.838;2022-07-09T00:16:10;3.03;;;2.67;;
32292;SDS011;43233;48.608;8.838;2022-07-09T00:18:36;4.63;;;3.17;;
32292;SDS011;43233;48.608;8.838;2022-07-09T00:21:01;5.83;;;2.50;;
32292;SDS011;43233;48.608;8.838;2022-07-09T00:23:27;5.70;;;2.73;;
32292;SDS011;43233;48.608;8.838;2022-07-09T00:25:53;7.17;;;2.87;;
32292;SDS011;43233;48.608;8.838;2022-07-09T00:28:18;7.40;;;2.53;;
32292;SDS011;43233;48.608;8.838;2022-07-09T00:30:44;5.70;;;2.60;;
32292;SDS011;43233;48.608;8.838;2022-07-09T00:33:10;3.40;;;2.60;;
32292;SDS011;43233;48.608;8.838;2022-07-09T00:35:35;5.70;;;2.87;;
32292;SDS011;43233;48.608;8.838;2022-07-09T00:38:01;5.60;;;3.20;;
32292;SDS011;43233;48.608;8.838;2022-07-09T00:40:26;6.13;;;2.80;;
32292;SDS011;43233;48.608;8.838;2022-07-09T00:42:52;8.70;;;2.63;;
32292;SDS011;43233;48.608;8.838;2022-07-09T00:45:17;7.37;;;2.90;;
32292;SDS011;43233;48.608;8.838;2022-07-09T00:47:43;3.60;;;2.77;;
32292;SDS011;43233;48.608;8.838;2022-07-09T00:50:09;4.53;;;3.17;;
32292;SDS011;43233;48.608;8.838;2022-07-09T00:52:35;5.20;;;3.37;;
32292;SDS011;43233;48.608;8.838;2022-07-09T00:55:03;3.77;;;2.40;;
32292;SDS011;43233;48.608;8.838;2022-07-09T00:57:31;4.63;;;2.50;;
32292;SDS011;43233;48.608;8.838;2022-07-09T00:59:58;3.63;;;2.90;;
32292;SDS011;43233;48.608;8.838;2022-07-09T01:02:24;8.23;;;3.53;;
32292;SDS011;43233;48.608;8.838;2022-07-09T01:04:49;4.30;;;2.67;;
32292;SDS011;43233;48.608;8.838;2022-07-09T01:07:15;5.17;;;2.93;;
32292;SDS011;43233;48.608;8.838;2022-07-09T01:09:41;3.10;;;2.40;;
32292;SDS011;43233;48.608;8.838;2022-07-09T01:12:07;4.40;;;2.60;;
32292;SDS011;43233;48.608;8.838;2022-07-09T01:14:33;4.53;;;2.50;;
32292;SDS011;43233;48.608;8.838;2022-07-09T01:17:00;4.30;;;2.90;;
32292;SDS011;43233;48.608;8.838;2022-07-09T01:19:30;4.53;;;3.63;;
32292;SDS011;43233;48.608;8.838;2022-07-09T01:21:56;8.03;;;2.80;;
32292;SDS011;43233;48.608;8.838;2022-07-09T01:24:23;4.90;;;3.33;;
32292;SDS011;43233;48.608;8.838;2022-07-09T01:26:49;4.77;;;2.80;;
32292;SDS011;43233;48.608;8.838;2022-07-09T01:29:17;6.93;;;2.70;;
32292;SDS011;43233;48.608;8.838;2022-07-09T01:31:42;7.20;;;3.20;;
32292;SDS011;43233;48.608;8.838;2022-07-09T01:34:08;7.67;;;3.33;;
32292;SDS011;43233;48.608;8.838;2022-07-09T01:36:34;4.07;;;3.20;;
32292;SDS011;43233;48.608;8.838;2022-07-09T01:39:00;8.00;;;3.13;;
32292;SDS011;43233;48.608;8.838;2022-07-09T01:41:25;3.13;;;2.80;;
32292;SDS011;43233;48.608;8.838;2022-07-09T01:43:51;2.80;;;2.60;;
32292;SDS011;43233;48.608;8.838;2022-07-09T01:46:17;4.60;;;2.90;;
32292;SDS011;43233;48.608;8.838;2022-07-09T01:48:42;7.40;;;3.10;;
32292;SDS011;43233;48.608;8.838;2022-07-09T01:51:08;8.30;;;3.03;;
32292;SDS011;43233;48.608;8.838;2022-07-09T01:53:35;2.80;;;2.50;;
32292;SDS011;43233;48.608;8.838;2022-07-09T01:56:05;3.80;;;2.60;;
32292;SDS011;43233;48.608;8.838;2022-07-09T01:58:32;4.27;;;2.83;;
32292;SDS011;43233;48.608;8.838;2022-07-09T02:00:58;3.07;;;2.73;;
32292;SDS011;43233;48.608;8.838;2022-07-09T02:03:23;7.47;;;3.03;;
32292;SDS011;43233;48.608;8.838;2022-07-09T02:05:49;4.43;;;3.03;;
32292;SDS011;43233;48.608;8.838;2022-07-09T02:08:14;2.97;;;2.43;;
32292;SDS011;43233;48.608;8.838;2022-07-09T02:10:40;4.07;;;3.10;;
32292;SDS011;43233;48.608;8.838;2022-07-09T02:13:06;4.00;;;3.53;;
32292;SDS011;43233;48.608;8.838;2022-07-09T02:15:31;2.83;;;2.50;;
32292;SDS011;43233;48.608;8.838;2022-07-09T02:17:57;3.63;;;3.00;;
32292;SDS011;43233;48.608;8.838;2022-07-09T02:20:23;2.87;;;2.60;;
32292;SDS011;43233;48.608;8.838;2022-07-09T02:22:50;4.87;;;3.10;;
32292;SDS011;43233;48.608;8.838;2022-07-09T02:25:15;3.63;;;2.77;;
32292;SDS011;43233;48.608;8.838;2022-07-09T02:27:41;7.63;;;2.93;;
32292;SDS011;43233;48.608;8.838;2022-07-09T02:30:07;6.03;;;3.33;;
32292;SDS011;43233;48.608;8.838;2022-07-09T02:32:33;4.53;;;2.93;;
32292;SDS011;43233;48.608;8.838;2022-07-09T02:34:58;3.93;;;3.00;;
32292;SDS011;43233;48.608;8.838;2022-07-09T02:37:24;3.30;;;3.00;;
32292;SDS011;43233;48.608;8.838;2022-07-09T02:39:50;6.27;;;3.07;;
32292;SDS011;43233;48.608;8.838;2022-07-09T02:42:15;6.03;;;3.50;;
32292;SDS011;43233;48.608;8.838;2022-07-09T02:44:41;6.17;;;3.10;;
32292;SDS011;43233;48.608;8.838;2022-07-09T02:47:08;5.80;;;3.13;;
32292;SDS011;43233;48.608;8.838;2022-07-09T02:49:34;3.93;;;2.97;;
32292;SDS011;43233;48.608;8.838;2022-07-09T02:51:59;4.83;;;2.80;;
32292;SDS011;43233;48.608;8.838;2022-07-09T02:54:26;3.03;;;2.40;;
32292;SDS011;43233;48.608;8.838;2022-07-09T02:56:52;3.23;;;2.93;;
32292;SDS011;43233;48.608;8.838;2022-07-09T02:59:18;4.73;;;3.60;;
32292;SDS011;43233;48.608;8.838;2022-07-09T03:01:44;7.67;;;3.60;;
32292;SDS011;43233;48.608;8.838;2022-07-09T03:04:10;32.13;;;12.30;;
32292;SDS011;43233;48.608;8.838;2022-07-09T03:06:36;12.90;;;6.97;;
32292;SDS011;43233;48.608;8.838;2022-07-09T03:09:02;6.50;;;4.30;;
32292;SDS011;43233;48.608;8.838;2022-07-09T03:11:28;6.20;;;3.30;;
32292;SDS011;43233;48.608;8.838;2022-07-09T03:13:54;5.57;;;3.30;;
32292;SDS011;43233;48.608;8.838;2022-07-09T03:16:19;3.93;;;2.80;;
32292;SDS011;43233;48.608;8.838;2022-07-09T03:18:45;3.47;;;3.13;;
32292;SDS011;43233;48.608;8.838;2022-07-09T03:21:11;3.80;;;3.50;;
32292;SDS011;43233;48.608;8.838;2022-07-09T03:23:37;4.37;;;2.97;;
32292;SDS011;43233;48.608;8.838;2022-07-09T03:26:04;3.30;;;2.67;;
32292;SDS011;43233;48.608;8.838;2022-07-09T03:28:30;3.13;;;2.67;;
32292;SDS011;43233;48.608;8.838;2022-07-09T03:30:56;3.43;;;3.17;;
32292;SDS011;43233;48.608;8.838;2022-07-09T03:33:22;4.87;;;2.87;;
32292;SDS011;43233;48.608;8.838;2022-07-09T03:35:48;3.87;;;2.63;;
32292;SDS011;43233;48.608;8.838;2022-07-09T03:38:13;4.47;;;3.10;;
32292;SDS011;43233;48.608;8.838;2022-07-09T03:40:39;11.13;;;3.77;;
32292;SDS011;43233;48.608;8.838;2022-07-09T03:43:04;3.10;;;2.80;;
32292;SDS011;43233;48.608;8.838;2022-07-09T03:45:30;4.47;;;3.10;;
32292;SDS011;43233;48.608;8.838;2022-07-09T03:47:55;8.87;;;3.40;;
32292;SDS011;43233;48.608;8.838;2022-07-09T03:50:21;5.60;;;3.50;;
32292;SDS011;43233;48.608;8.838;2022-07-09T03:52:47;5.27;;;3.97;;
32292;SDS011;43233;48.608;8.838;2022-07-09T03:55:12;3.80;;;3.27;;
32292;SDS011;43233;48.608;8.838;2022-07-09T03:57:38;4.80;;;3.30;;
32292;SDS011;43233;48.608;8.838;2022-07-09T04:00:04;4.80;;;3.10;;
32292;SDS011;43233;48.608;8.838;2022-07-09T04:02:31;6.30;;;3.00;;
32292;SDS011;43233;48.608;8.838;2022-07-09T04:04:57;5.40;;;3.37;;
32292;SDS011;43233;48.608;8.838;2022-07-09T04:07:22;3.53;;;2.70;;
32292;SDS011;43233;48.608;8.838;2022-07-09T04:09:51;3.70;;;3.33;;
32292;SDS011;43233;48.608;8.838;2022-07-09T04:12:20;4.63;;;2.90;;
32292;SDS011;43233;48.608;8.838;2022-07-09T04:14:46;3.30;;;2.70;;
32292;SDS011;43233;48.608;8.838;2022-07-09T04:17:12;3.40;;;3.10;;
32292;SDS011;43233;48.608;8.838;2022-07-09T04:19:38;3.40;;;3.10;;
32292;SDS011;43233;48.608;8.838;2022-07-09T04:22:03;2.97;;;2.77;;
32292;SDS011;43233;48.608;8.838;2022-07-09T04:24:29;4.97;;;3.00;;
32292;SDS011;43233;48.608;8.838;2022-07-09T04:26:55;5.80;;;3.37;;
32292;SDS011;43233;48.608;8.838;2022-07-09T04:29:21;7.63;;;3.43;;
32292;SDS011;43233;48.608;8.838;2022-07-09T04:31:47;3.60;;;3.27;;
32292;SDS011;43233;48.608;8.838;2022-07-09T04:34:12;6.23;;;3.40;;
32292;SDS011;43233;48.608;8.838;2022-07-09T04:36:38;4.20;;;3.10;;
32292;SDS011;43233;48.608;8.838;2022-07-09T04:39:04;4.10;;;3.57;;
32292;SDS011;43233;48.608;8.838;2022-07-09T04:41:29;5.67;;;3.07;;
32292;SDS011;43233;48.608;8.838;2022-07-09T04:43:55;4.03;;;3.10;;
32292;SDS011;43233;48.608;8.838;2022-07-09T04:46:21;3.43;;;2.87;;
32292;SDS011;43233;48.608;8.838;2022-07-09T04:48:47;5.53;;;3.03;;
32292;SDS011;43233;48.608;8.838;2022-07-09T04:51:13;4.13;;;3.73;;
32292;SDS011;43233;48.608;8.838;2022-07-09T04:53:39;9.03;;;3.60;;
32292;SDS011;43233;48.608;8.838;2022-07-09T04:56:04;6.33;;;3.90;;
32292;SDS011;43233;48.608;8.838;2022-07-09T04:58:31;3.87;;;3.50;;
32292;SDS011;43233;48.608;8.838;2022-07-09T05:00:57;12.73;;;4.20;;
32292;SDS011;43233;48.608;8.838;2022-07-09T05:03:23;6.67;;;4.20;;
32292;SDS011;43233;48.608;8.838;2022-07-09T05:05:49;3.93;;;3.47;;
32292;SDS011;43233;48.608;8.838;2022-07-09T05:08:18;10.00;;;4.13;;
32292;SDS011;43233;48.608;8.838;2022-07-09T05:10:43;5.20;;;4.70;;
32292;SDS011;43233;48.608;8.838;2022-07-09T05:13:09;8.77;;;5.07;;
32292;SDS011;43233;48.608;8.838;2022-07-09T05:15:35;5.67;;;3.70;;
32292;SDS011;43233;48.608;8.838;2022-07-09T05:18:01;6.50;;;4.10;;
32292;SDS011;43233;48.608;8.838;2022-07-09T05:20:26;11.67;;;4.83;;
32292;SDS011;43233;48.608;8.838;2022-07-09T05:22:52;4.33;;;4.00;;
32292;SDS011;43233;48.608;8.838;2022-07-09T05:25:18;4.43;;;3.93;;
32292;SDS011;43233;48.608;8.838;2022-07-09T05:27:44;7.07;;;4.80;;
32292;SDS011;43233;48.608;8.838;2022-07-09T05:30:11;10.23;;;4.73;;
32292;SDS011;43233;48.608;8.838;2022-07-09T05:32:39;7.47;;;5.47;;
32292;SDS011;43233;48.608;8.838;2022-07-09T05:35:05;8.83;;;5.53;;
32292;SDS011;43233;48.608;8.838;2022-07-09T05:37:31;5.20;;;4.00;;
32292;SDS011;43233;48.608;8.838;2022-07-09T05:39:57;7.93;;;3.60;;
32292;SDS011;43233;48.608;8.838;2022-07-09T05:42:22;7.90;;;4.40;;
32292;SDS011;43233;48.608;8.838;2022-07-09T05:44:49;5.43;;;4.73;;
32292;SDS011;43233;48.608;8.838;2022-07-09T05:47:14;8.13;;;5.13;;
32292;SDS011;43233;48.608;8.838;2022-07-09T05:49:40;12.20;;;5.30;;
32292;SDS011;43233;48.608;8.838;2022-07-09T05:52:06;6.23;;;4.50;;
32292;SDS011;43233;48.608;8.838;2022-07-09T05:54:32;6.17;;;4.27;;
32292;SDS011;43233;48.608;8.838;2022-07-09T05:56:57;6.90;;;4.37;;
32292;SDS011;43233;48.608;8.838;2022-07-09T05:59:23;6.70;;;3.80;;
32292;SDS011;43233;48.608;8.838;2022-07-09T06:01:49;8.70;;;4.00;;
32292;SDS011;43233;48.608;8.838;2022-07-09T06:04:14;5.73;;;4.03;;
32292;SDS011;43233;48.608;8.838;2022-07-09T06:06:40;5.87;;;3.73;;
32292;SDS011;43233;48.608;8.838;2022-07-09T06:09:06;4.70;;;4.07;;
32292;SDS011;43233;48.608;8.838;2022-07-09T06:11:32;4.23;;;3.47;;
32292;SDS011;43233;48.608;8.838;2022-07-09T06:13:58;7.30;;;3.57;;
32292;SDS011;43233;48.608;8.838;2022-07-09T06:16:24;8.17;;;3.60;;
32292;SDS011;43233;48.608;8.838;2022-07-09T06:18:49;3.97;;;3.67;;
32292;SDS011;43233;48.608;8.838;2022-07-09T06:21:15;6.07;;;3.83;;
32292;SDS011;43233;48.608;8.838;2022-07-09T06:23:40;6.20;;;4.13;;
32292;SDS011;43233;48.608;8.838;2022-07-09T06:26:06;4.77;;;4.00;;
32292;SDS011;43233;48.608;8.838;2022-07-09T06:28:32;3.50;;;3.20;;
32292;SDS011;43233;48.608;8.838;2022-07-09T06:31:01;3.50;;;3.20;;
32292;SDS011;43233;48.608;8.838;2022-07-09T06:33:26;3.30;;;3.00;;
32292;SDS011;43233;48.608;8.838;2022-07-09T06:35:52;6.53;;;2.97;;
32292;SDS011;43233;48.608;8.838;2022-07-09T06:38:17;6.80;;;3.57;;
32292;SDS011;43233;48.608;8.838;2022-07-09T06:40:43;7.00;;;3.60;;
32292;SDS011;43233;48.608;8.838;2022-07-09T06:43:09;4.90;;;3.97;;
32292;SDS011;43233;48.608;8.838;2022-07-09T06:45:36;3.40;;;3.10;;
32292;SDS011;43233;48.608;8.838;2022-07-09T06:48:02;3.70;;;3.13;;
32292;SDS011;43233;48.608;8.838;2022-07-09T06:50:27;4.23;;;3.20;;
32292;SDS011;43233;48.608;8.838;2022-07-09T06:52:53;7.23;;;3.60;;
32292;SDS011;43233;48.608;8.838;2022-07-09T06:55:19;10.20;;;3.90;;
32292;SDS011;43233;48.608;8.838;2022-07-09T06:57:44;5.40;;;3.30;;
32292;SDS011;43233;48.608;8.838;2022-07-09T07:00:11;5.63;;;3.10;;
32292;SDS011;43233;48.608;8.838;2022-07-09T07:02:37;4.10;;;2.60;;
32292;SDS011;43233;48.608;8.838;2022-07-09T07:05:02;3.87;;;3.00;;
32292;SDS011;43233;48.608;8.838;2022-07-09T07:07:29;6.03;;;3.67;;
32292;SDS011;43233;48.608;8.838;2022-07-09T07:09:55;5.93;;;3.13;;
32292;SDS011;43233;48.608;8.838;2022-07-09T07:12:20;4.40;;;2.83;;
32292;SDS011;43233;48.608;8.838;2022-07-09T07:14:46;5.00;;;3.50;;
32292;SDS011;43233;48.608;8.838;2022-07-09T07:17:12;9.57;;;3.67;;
32292;SDS011;43233;48.608;8.838;2022-07-09T07:19:37;6.07;;;3.00;;
32292;SDS011;43233;48.608;8.838;2022-07-09T07:22:04;4.37;;;3.60;;
32292;SDS011;43233;48.608;8.838;2022-07-09T07:24:29;4.07;;;3.03;;
32292;SDS011;43233;48.608;8.838;2022-07-09T07:26:56;3.93;;;2.93;;
32292;SDS011;43233;48.608;8.838;2022-07-09T07:29:22;3.50;;;3.20;;
32292;SDS011;43233;48.608;8.838;2022-07-09T07:31:48;3.77;;;3.43;;
32292;SDS011;43233;48.608;8.838;2022-07-09T07:34:14;3.20;;;2.93;;
32292;SDS011;43233;48.608;8.838;2022-07-09T07:36:40;5.43;;;2.83;;
32292;SDS011;43233;48.608;8.838;2022-07-09T07:39:05;5.63;;;3.50;;
32292;SDS011;43233;48.608;8.838;2022-07-09T07:41:31;6.20;;;3.57;;
32292;SDS011;43233;48.608;8.838;2022-07-09T07:43:57;5.03;;;3.47;;
32292;SDS011;43233;48.608;8.838;2022-07-09T07:46:22;8.97;;;2.90;;
32292;SDS011;43233;48.608;8.838;2022-07-09T07:48:48;4.07;;;2.50;;
32292;SDS011;43233;48.608;8.838;2022-07-09T07:51:13;6.93;;;2.80;;
32292;SDS011;43233;48.608;8.838;2022-07-09T07:53:39;3.00;;;2.20;;
32292;SDS011;43233;48.608;8.838;2022-07-09T07:56:05;5.40;;;2.90;;
32292;SDS011;43233;48.608;8.838;2022-07-09T07:58:32;6.20;;;2.43;;
32292;SDS011;43233;48.608;8.838;2022-07-09T08:00:57;5.27;;;2.83;;
32292;SDS011;43233;48.608;8.838;2022-07-09T08:03:23;7.70;;;2.43;;
32292;SDS011;43233;48.608;8.838;2022-07-09T08:05:49;3.93;;;2.87;;
32292;SDS011;43233;48.608;8.838;2022-07-09T08:08:14;3.13;;;1.97;;
32292;SDS011;43233;48.608;8.838;2022-07-09T08:10:40;3.33;;;2.07;;
32292;SDS011;43233;48.608;8.838;2022-07-09T08:13:06;3.23;;;2.30;;
32292;SDS011;43233;48.608;8.838;2022-07-09T08:15:31;6.90;;;2.50;;
32292;SDS011;43233;48.608;8.838;2022-07-09T08:17:57;4.93;;;2.50;;
32292;SDS011;43233;48.608;8.838;2022-07-09T08:20:23;5.53;;;2.00;;
32292;SDS011;43233;48.608;8.838;2022-07-09T08:22:48;8.57;;;2.87;;
32292;SDS011;43233;48.608;8.838;2022-07-09T08:25:14;14.63;;;2.57;;
32292;SDS011;43233;48.608;8.838;2022-07-09T08:27:40;4.23;;;1.93;;
32292;SDS011;43233;48.608;8.838;2022-07-09T08:30:06;4.30;;;2.30;;
32292;SDS011;43233;48.608;8.838;2022-07-09T08:32:32;5.70;;;1.70;;
32292;SDS011;43233;48.608;8.838;2022-07-09T08:34:58;1.53;;;1.10;;
32292;SDS011;43233;48.608;8.838;2022-07-09T08:37:23;4.07;;;1.63;;
32292;SDS011;43233;48.608;8.838;2022-07-09T08:39:49;2.43;;;1.50;;
32292;SDS011;43233;48.608;8.838;2022-07-09T08:42:14;3.70;;;1.97;;
32292;SDS011;43233;48.608;8.838;2022-07-09T08:44:43;2.70;;;1.60;;
32292;SDS011;43233;48.608;8.838;2022-07-09T08:47:12;4.67;;;2.07;;
32292;SDS011;43233;48.608;8.838;2022-07-09T08:49:40;1.77;;;1.50;;
32292;SDS011;43233;48.608;8.838;2022-07-09T08:52:06;1.70;;;1.60;;
32292;SDS011;43233;48.608;8.838;2022-07-09T08:54:32;3.03;;;1.77;;
32292;SDS011;43233;48.608;8.838;2022-07-09T08:57:02;3.50;;;1.57;;
32292;SDS011;43233;48.608;8.838;2022-07-09T08:59:29;2.38;;;1.63;;
32292;SDS011;43233;48.608;8.838;2022-07-09T09:01:55;2.05;;;1.50;;
32292;SDS011;43233;48.608;8.838;2022-07-09T09:04:20;3.67;;;1.70;;
32292;SDS011;43233;48.608;8.838;2022-07-09T09:06:46;4.10;;;2.23;;
32292;SDS011;43233;48.608;8.838;2022-07-09T09:09:17;3.97;;;2.10;;
32292;SDS011;43233;48.608;8.838;2022-07-09T09:11:46;6.47;;;1.77;;
32292;SDS011;43233;48.608;8.838;2022-07-09T09:14:22;3.70;;;1.60;;
32292;SDS011;43233;48.608;8.838;2022-07-09T09:16:48;3.73;;;1.57;;
32292;SDS011;43233;48.608;8.838;2022-07-09T09:19:15;4.50;;;1.60;;
32292;SDS011;43233;48.608;8.838;2022-07-09T09:21:40;4.50;;;1.90;;
32292;SDS011;43233;48.608;8.838;2022-07-09T09:24:06;4.43;;;1.73;;
32292;SDS011;43233;48.608;8.838;2022-07-09T09:26:32;4.80;;;2.00;;
32292;SDS011;43233;48.608;8.838;2022-07-09T09:29:01;1.90;;;1.47;;
32292;SDS011;43233;48.608;8.838;2022-07-09T09:36:39;2.80;;;1.30;;
32292;SDS011;43233;48.608;8.838;2022-07-09T09:39:17;2.30;;;1.60;;
32292;SDS011;43233;48.608;8.838;2022-07-09T09:41:51;3.20;;;1.83;;
32292;SDS011;43233;48.608;8.838;2022-07-09T09:44:22;1.60;;;1.50;;
32292;SDS011;43233;48.608;8.838;2022-07-09T09:46:50;2.30;;;1.50;;
32292;SDS011;43233;48.608;8.838;2022-07-09T09:49:17;2.60;;;1.17;;
32292;SDS011;43233;48.608;8.838;2022-07-09T09:51:56;3.30;;;1.80;;
32292;SDS011;43233;48.608;8.838;2022-07-09T09:54:26;7.87;;;1.40;;
32292;SDS011;43233;48.608;8.838;2022-07-09T09:56:52;2.23;;;1.50;;
32292;SDS011;43233;48.608;8.838;2022-07-09T09:59:19;10.97;;;1.67;;
32292;SDS011;43233;48.608;8.838;2022-07-09T10:01:45;4.37;;;1.50;;
32292;SDS011;43233;48.608;8.838;2022-07-09T10:04:12;2.80;;;1.50;;
32292;SDS011;43233;48.608;8.838;2022-07-09T10:06:38;4.83;;;1.50;;
32292;SDS011;43233;48.608;8.838;2022-07-09T10:09:05;1.50;;;1.40;;
32292;SDS011;43233;48.608;8.838;2022-07-09T10:11:45;4.63;;;2.17;;
32292;SDS011;43233;48.608;8.838;2022-07-09T10:16:53;3.43;;;1.60;;
32292;SDS011;43233;48.608;8.838;2022-07-09T10:19:25;1.17;;;1.07;;
32292;SDS011;43233;48.608;8.838;2022-07-09T10:21:56;2.00;;;1.23;;
32292;SDS011;43233;48.608;8.838;2022-07-09T10:24:26;3.07;;;1.63;;
32292;SDS011;43233;48.608;8.838;2022-07-09T10:27:07;3.10;;;1.87;;
32292;SDS011;43233;48.608;8.838;2022-07-09T10:29:34;3.97;;;1.63;;
32292;SDS011;43233;48.608;8.838;2022-07-09T10:32:21;8.27;;;1.40;;
32292;SDS011;43233;48.608;8.838;2022-07-09T10:34:58;5.17;;;2.33;;
32292;SDS011;43233;48.608;8.838;2022-07-09T10:40:19;2.20;;;1.53;;
32292;SDS011;43233;48.608;8.838;2022-07-09T10:43:01;2.90;;;1.80;;
32292;SDS011;43233;48.608;8.838;2022-07-09T10:45:28;1.90;;;1.30;;
32292;SDS011;43233;48.608;8.838;2022-07-09T10:48:03;2.07;;;1.53;;
32292;SDS011;43233;48.608;8.838;2022-07-09T10:50:32;6.90;;;2.00;;
32292;SDS011;43233;48.608;8.838;2022-07-09T10:53:00;2.80;;;1.37;;
32292;SDS011;43233;48.608;8.838;2022-07-09T10:55:27;1.40;;;1.30;;
32292;SDS011;43233;48.608;8.838;2022-07-09T10:57:54;1.67;;;1.57;;
32292;SDS011;43233;48.608;8.838;2022-07-09T11:00:24;3.70;;;1.67;;
32292;SDS011;43233;48.608;8.838;2022-07-09T11:02:52;1.50;;;1.40;;
32292;SDS011;43233;48.608;8.838;2022-07-09T11:05:18;2.43;;;1.20;;
32292;SDS011;43233;48.608;8.838;2022-07-09T11:07:53;2.80;;;1.23;;
32292;SDS011;43233;48.608;8.838;2022-07-09T11:10:19;1.60;;;1.50;;
32292;SDS011;43233;48.608;8.838;2022-07-09T11:12:48;3.30;;;1.60;;
32292;SDS011;43233;48.608;8.838;2022-07-09T11:15:18;2.90;;;1.37;;
32292;SDS011;43233;48.608;8.838;2022-07-09T11:17:53;2.13;;;1.50;;
32292;SDS011;43233;48.608;8.838;2022-07-09T11:20:23;3.43;;;1.97;;
32292;SDS011;43233;48.608;8.838;2022-07-09T11:22:49;2.70;;;1.50;;
32292;SDS011;43233;48.608;8.838;2022-07-09T11:25:16;1.57;;;1.47;;
32292;SDS011;43233;48.608;8.838;2022-07-09T11:27:42;1.40;;;1.30;;
32292;SDS011;43233;48.608;8.838;2022-07-09T11:30:16;2.73;;;1.30;;
32292;SDS011;43233;48.608;8.838;2022-07-09T11:32:42;1.63;;;1.20;;
32292;SDS011;43233;48.608;8.838;2022-07-09T11:35:09;1.60;;;1.50;;
32292;SDS011;43233;48.608;8.838;2022-07-09T11:37:35;1.37;;;1.10;;
32292;SDS011;43233;48.608;8.838;2022-07-09T11:40:02;3.57;;;1.67;;
32292;SDS011;43233;48.608;8.838;2022-07-09T11:42:28;2.70;;;1.07;;
32292;SDS011;43233;48.608;8.838;2022-07-09T11:44:54;1.80;;;1.40;;
32292;SDS011;43233;48.608;8.838;2022-07-09T11:47:36;2.47;;;1.40;;
32292;SDS011;43233;48.608;8.838;2022-07-09T11:50:04;2.60;;;1.40;;
32292;SDS011;43233;48.608;8.838;2022-07-09T11:52:35;3.53;;;1.57;;
32292;SDS011;43233;48.608;8.838;2022-07-09T11:57:35;3.20;;;1.57;;
32292;SDS011;43233;48.608;8.838;2022-07-09T12:00:03;1.40;;;1.30;;
32292;SDS011;43233;48.608;8.838;2022-07-09T12:02:34;1.60;;;1.40;;
32292;SDS011;43233;48.608;8.838;2022-07-09T12:05:05;1.37;;;1.27;;
32292;SDS011;43233;48.608;8.838;2022-07-09T12:07:32;3.30;;;2.40;;
32292;SDS011;43233;48.608;8.838;2022-07-09T12:10:04;2.20;;;1.40;;
32292;SDS011;43233;48.608;8.838;2022-07-09T12:12:34;5.10;;;1.40;;
32292;SDS011;43233;48.608;8.838;2022-07-09T12:15:01;2.73;;;1.50;;
32292;SDS011;43233;48.608;8.838;2022-07-09T12:17:30;2.80;;;2.17;;
32292;SDS011;43233;48.608;8.838;2022-07-09T12:19:57;7.70;;;1.80;;
32292;SDS011;43233;48.608;8.838;2022-07-09T12:22:23;2.00;;;1.30;;
32292;SDS011;43233;48.608;8.838;2022-07-09T12:24:49;1.43;;;1.33;;
32292;SDS011;43233;48.608;8.838;2022-07-09T12:27:18;2.23;;;1.23;;
32292;SDS011;43233;48.608;8.838;2022-07-09T12:29:47;1.57;;;1.47;;
32292;SDS011;43233;48.608;8.838;2022-07-09T12:32:13;1.30;;;1.20;;
32292;SDS011;43233;48.608;8.838;2022-07-09T12:34:38;2.77;;;1.50;;
32292;SDS011;43233;48.608;8.838;2022-07-09T12:37:04;1.30;;;1.20;;
32292;SDS011;43233;48.608;8.838;2022-07-09T12:39:30;3.57;;;1.13;;
32292;SDS011;43233;48.608;8.838;2022-07-09T12:41:55;2.23;;;1.47;;
32292;SDS011;43233;48.608;8.838;2022-07-09T12:44:21;2.17;;;1.63;;
32292;SDS011;43233;48.608;8.838;2022-07-09T12:46:47;3.00;;;1.37;;
32292;SDS011;43233;48.608;8.838;2022-07-09T12:49:12;2.80;;;1.33;;
32292;SDS011;43233;48.608;8.838;2022-07-09T12:51:38;1.53;;;1.13;;
32292;SDS011;43233;48.608;8.838;2022-07-09T12:54:03;1.17;;;1.07;;
32292;SDS011;43233;48.608;8.838;2022-07-09T12:56:29;2.63;;;1.23;;
32292;SDS011;43233;48.608;8.838;2022-07-09T12:58:55;2.73;;;1.07;;
32292;SDS011;43233;48.608;8.838;2022-07-09T13:01:20;4.60;;;1.10;;
32292;SDS011;43233;48.608;8.838;2022-07-09T13:03:46;5.67;;;1.67;;
32292;SDS011;43233;48.608;8.838;2022-07-09T13:06:12;3.03;;;1.20;;
32292;SDS011;43233;48.608;8.838;2022-07-09T13:08:56;3.17;;;1.20;;
32292;SDS011;43233;48.608;8.838;2022-07-09T13:11:22;1.07;;;0.97;;
32292;SDS011;43233;48.608;8.838;2022-07-09T13:13:47;1.50;;;1.10;;
32292;SDS011;43233;48.608;8.838;2022-07-09T13:16:13;1.63;;;1.07;;
32292;SDS011;43233;48.608;8.838;2022-07-09T13:18:39;1.60;;;0.90;;
32292;SDS011;43233;48.608;8.838;2022-07-09T13:21:04;1.67;;;1.10;;
32292;SDS011;43233;48.608;8.838;2022-07-09T13:23:30;1.17;;;1.17;;
32292;SDS011;43233;48.608;8.838;2022-07-09T13:25:56;3.03;;;1.33;;
32292;SDS011;43233;48.608;8.838;2022-07-09T13:28:22;1.50;;;1.40;;
32292;SDS011;43233;48.608;8.838;2022-07-09T13:30:48;1.13;;;1.03;;
32292;SDS011;43233;48.608;8.838;2022-07-09T13:33:14;1.40;;;1.30;;
32292;SDS011;43233;48.608;8.838;2022-07-09T13:35:39;1.60;;;1.30;;
32292;SDS011;43233;48.608;8.838;2022-07-09T13:38:06;1.37;;;1.10;;
32292;SDS011;43233;48.608;8.838;2022-07-09T13:40:31;1.37;;;1.27;;
32292;SDS011;43233;48.608;8.838;2022-07-09T13:42:57;1.43;;;1.10;;
32292;SDS011;43233;48.608;8.838;2022-07-09T13:45:23;2.00;;;1.10;;
32292;SDS011;43233;48.608;8.838;2022-07-09T13:47:48;2.37;;;1.50;;
32292;SDS011;43233;48.608;8.838;2022-07-09T13:50:14;3.97;;;1.60;;
32292;SDS011;43233;48.608;8.838;2022-07-09T13:52:40;1.50;;;1.20;;
32292;SDS011;43233;48.608;8.838;2022-07-09T13:55:06;2.13;;;1.37;;
32292;SDS011;43233;48.608;8.838;2022-07-09T13:57:32;2.07;;;1.30;;
32292;SDS011;43233;48.608;8.838;2022-07-09T13:59:57;1.27;;;1.17;;
32292;SDS011;43233;48.608;8.838;2022-07-09T14:02:23;1.50;;;1.40;;
32292;SDS011;43233;48.608;8.838;2022-07-09T14:04:49;1.67;;;1.37;;
32292;SDS011;43233;48.608;8.838;2022-07-09T14:07:15;2.00;;;0.97;;
32292;SDS011;43233;48.608;8.838;2022-07-09T14:09:41;1.63;;;1.10;;
32292;SDS011;43233;48.608;8.838;2022-07-09T14:12:07;2.47;;;1.20;;
32292;SDS011;43233;48.608;8.838;2022-07-09T14:14:33;2.17;;;1.70;;
32292;SDS011;43233;48.608;8.838;2022-07-09T14:16:59;2.93;;;1.30;;
32292;SDS011;43233;48.608;8.838;2022-07-09T14:19:25;1.20;;;1.10;;
32292;SDS011;43233;48.608;8.838;2022-07-09T14:21:51;1.70;;;1.23;;
32292;SDS011;43233;48.608;8.838;2022-07-09T14:24:17;2.40;;;1.13;;
32292;SDS011;43233;48.608;8.838;2022-07-09T14:26:42;7.43;;;1.20;;
32292;SDS011;43233;48.608;8.838;2022-07-09T14:29:09;1.60;;;1.10;;
32292;SDS011;43233;48.608;8.838;2022-07-09T14:31:36;1.60;;;1.40;;
32292;SDS011;43233;48.608;8.838;2022-07-09T14:34:01;1.43;;;1.10;;
32292;SDS011;43233;48.608;8.838;2022-07-09T14:36:27;2.63;;;1.17;;
32292;SDS011;43233;48.608;8.838;2022-07-09T14:38:53;3.50;;;1.30;;
32292;SDS011;43233;48.608;8.838;2022-07-09T14:41:18;1.30;;;1.20;;
32292;SDS011;43233;48.608;8.838;2022-07-09T14:43:44;2.37;;;1.37;;
32292;SDS011;43233;48.608;8.838;2022-07-09T14:46:09;3.13;;;1.20;;
32292;SDS011;43233;48.608;8.838;2022-07-09T14:48:35;2.03;;;1.60;;
32292;SDS011;43233;48.608;8.838;2022-07-09T14:51:01;1.50;;;1.10;;
32292;SDS011;43233;48.608;8.838;2022-07-09T14:53:27;3.53;;;1.40;;
32292;SDS011;43233;48.608;8.838;2022-07-09T14:55:53;1.47;;;1.20;;
32292;SDS011;43233;48.608;8.838;2022-07-09T14:58:19;1.77;;;1.20;;